Flight Track Log - Related Links

Times and Time Zones

All times are in EDT time to prevent confusion due to time zone crossing. See the N7192Y flight status page for this flight to view local times or setup timezone preferences in your user account.

Time Position Orientation Groundspeed Altitude Reporting Facility
EDT Latitude Longitude Course Direction KTS MPH feet Rate Location/Type
Fri 09:32:14 AM 40.0683 -78.9744 48° Northeast 112 129 3,300  Level Cleveland Center
Fri 09:33:27 AM 40.0969 -78.9331 48° Northeast 120 138 4,300 767 Climbing Cleveland Center
Fri 09:34:27 AM 40.1172 -78.9025 49° Northeast 114 131 5,000 397 Climbing Cleveland Center
Fri 09:35:28 AM 40.1397 -78.8639 53° Northeast 136 157 5,100 52 Climbing Cleveland Center
Fri 09:36:23 AM 40.1642 -78.8253 50° Northeast 148 170 5,100  Level Cleveland Center
Fri 09:37:23 AM 40.1906 -78.7783 54° Northeast 147 169 5,100 -50 Level Cleveland Center
Fri 09:38:24 AM 40.2128 -78.7397 53° Northeast 144 166 5,000 -50 Descending Cleveland Center
Fri 09:39:24 AM 40.2414 -78.6983 48° Northeast 145 167 5,000  Level Cleveland Center
Fri 09:40:19 AM 40.2614 -78.6594 56° Northeast 144 166 5,000  Level Cleveland Center
Fri 09:41:20 AM 40.2878 -78.6153 52° Northeast 146 168 5,000 50 Level Cleveland Center
Fri 09:42:20 AM 40.3119 -78.5708 54° Northeast 148 170 5,100 50 Climbing Cleveland Center
Fri 09:43:21 AM 40.3364 -78.5322 50° Northeast 145 167 5,100 -50 Level Cleveland Center
Fri 09:44:21 AM 40.3647 -78.4875 50° Northeast 147 169 5,000  Descending Cleveland Center
Fri 09:45:22 AM 40.3889 -78.4433 54° Northeast 149 171 5,100 49 Climbing Cleveland Center
Fri 09:46:23 AM 40.4153 -78.4014 50° Northeast 151 174 5,100  Level Cleveland Center
Fri 09:47:23 AM 40.4394 -78.3597 53° Northeast 148 170 5,100 -50 Level Cleveland Center
Fri 09:48:24 AM 40.4658 -78.3153 52° Northeast 144 166 5,000  Descending Cleveland Center
Fri 09:49:24 AM 40.4919 -78.2733 51° Northeast 144 166 5,100 67 Climbing Cleveland Center
Fri 09:49:53 AM 40.4975 -78.2556 68° East 145 167 5,100  Level New York Center
Fri 09:50:52 AM 40.5231 -78.2144 51° Northeast 158 182 5,100 50 Level New York Center
Fri 09:51:53 AM 40.5486 -78.1708 52° Northeast 158 182 5,200 397 Climbing New York Center
Fri 09:52:53 AM 40.5697 -78.1347 52° Northeast 142 163 5,900 454 Climbing New York Center
Fri 09:53:52 AM 40.5906 -78.1014 51° Northeast 129 148 6,100 50 Climbing New York Center
Fri 09:54:53 AM 40.6142 -78.0575 55° Northeast 124 143 6,000  Descending New York Center
Fri 09:55:54 AM 40.6394 -78.0164 51° Northeast 124 143 6,100 50 Climbing New York Center
Fri 09:56:52 AM 40.6633 -77.9697 56° Northeast 135 155 6,100  Level New York Center
Fri 09:57:53 AM 40.6889 -77.9258 52° Northeast 140 161 6,100  Level New York Center
Fri 09:58:53 AM 40.7125 -77.8789 56° Northeast 140 161 6,100  Level New York Center
Fri 09:59:54 AM 40.7428 -77.8272 52° Northeast 146 168 6,100  Level New York Center
Fri 10:00:54 AM 40.7661 -77.7831 55° Northeast 146 168 6,100  Level New York Center
Fri 10:01:52 AM 40.7919 -77.7364 54° Northeast 146 168 6,100  Level New York Center
Fri 10:02:52 AM 40.8175 -77.6894 54° Northeast 146 168 6,100 -49 Level New York Center
Fri 10:03:54 AM 40.8414 -77.6397 58° Northeast 146 168 6,000 -397 Descending New York Center
Fri 10:04:53 AM 40.8692 -77.5906 53° Northeast 156 180 5,300 -403 Descending New York Center
Fri 10:05:53 AM 40.8947 -77.5436 54° Northeast 163 188 5,200 -99 Descending New York Center
Fri 10:06:54 AM 40.9203 -77.4967 54° Northeast 163 188 5,100 -50 Descending New York Center
Fri 10:07:52 AM 40.9458 -77.4525 53° Northeast 163 188 5,100  Level New York Center
Fri 10:08:53 AM 40.9694 -77.4025 58° Northeast 163 188 5,100  Level New York Center
Fri 10:09:54 AM 40.9947 -77.3583 53° Northeast 163 188 5,100  Level New York Center
Fri 10:10:52 AM 41.0183 -77.3111 56° Northeast 163 188 5,100  Level New York Center
Fri 10:11:52 AM 41.0417 -77.2639 57° Northeast 163 188 5,100  Level New York Center
Fri 10:12:54 AM 41.0672 -77.2167 54° Northeast 163 188 5,100  Level New York Center
Fri 10:13:52 AM 41.0925 -77.1722 53° Northeast 163 188 5,100  Level New York Center
Fri 10:14:54 AM 41.1178 -77.1278 53° Northeast 156 180 5,100  Level New York Center
Fri 10:15:54 AM 41.1392 -77.0803 59° Northeast 156 180 5,100  Level New York Center
Fri 10:16:52 AM 41.1644 -77.0356 53° Northeast 156 180 5,100  Level New York Center
Fri 10:17:54 AM 41.1897 -76.9883 55° Northeast 156 180 5,100  Level New York Center
Fri 10:18:52 AM 41.2131 -76.9408 57° Northeast 156 180 5,100  Level New York Center
Fri 10:19:52 AM 41.2383 -76.8964 53° Northeast 156 180 5,100  Level New York Center
Fri 10:20:53 AM 41.2617 -76.8486 57° Northeast 151 174 5,100  Level New York Center
Fri 10:21:52 AM 41.2847 -76.8039 56° Northeast 151 174 5,100  Level New York Center
Fri 10:22:52 AM 41.3078 -76.7589 56° Northeast 151 174 5,100  Level New York Center
Fri 10:23:54 AM 41.3311 -76.7139 55° Northeast 151 174 5,100  Level New York Center
Fri 10:24:55 AM 41.3564 -76.6664 55° Northeast 151 174 5,100  Level New York Center
Fri 10:25:52 AM 41.3769 -76.6267 55° Northeast 151 174 5,100  Level New York Center
Fri 10:26:53 AM 41.4000 -76.5817 56° Northeast 146 168 5,100  Level New York Center
Fri 10:27:53 AM 41.4253 -76.5314 56° Northeast 146 168 5,100  Level New York Center
Fri 10:28:53 AM 41.4506 -76.4867 53° Northeast 146 168 5,100  Level New York Center
Fri 10:29:53 AM 41.4736 -76.4414 56° Northeast 146 168 5,100  Level New York Center
Fri 10:30:52 AM 41.4942 -76.4017 55° Northeast 146 168 5,100  Level New York Center
Fri 10:31:52 AM 41.5194 -76.3483 58° Northeast 146 168 5,100  Level New York Center
Fri 10:32:53 AM 41.5444 -76.3061 52° Northeast 141 162 5,100  Level New York Center
Fri 10:33:53 AM 41.5675 -76.2553 59° Northeast 141 162 5,100  Level New York Center
Fri 10:34:52 AM 41.5903 -76.2156 53° Northeast 141 162 5,100  Level New York Center
Fri 10:35:52 AM 41.6131 -76.1703 56° Northeast 141 162 5,100  Level New York Center
Fri 10:36:52 AM 41.6383 -76.1194 56° Northeast 141 162 5,100  Level New York Center
Fri 10:37:53 AM 41.6611 -76.0742 56° Northeast 141 162 5,100 Level New York Center
Fri 10:40:00 AM 41.6955 -75.9600 55° Northeast  Level FlightAware Approximate
Fri 10:47:00 AM 41.8672 -75.6301 55° Northeast  Level FlightAware Approximate
Fri 10:48:00 AM 41.8917 -75.5828 55° Northeast  Level FlightAware Approximate
Fri 10:49:00 AM 41.9163 -75.5356 55° Northeast  Level FlightAware Approximate
Fri 10:50:00 AM 41.9409 -75.4884 55° Northeast  Level FlightAware Approximate
Fri 10:51:00 AM 41.9655 -75.4413 55° Northeast  Level FlightAware Approximate
Fri 10:52:00 AM 41.9901 -75.3941 55° Northeast  Level FlightAware Approximate
Fri 10:52:40 AM 42.0097 -75.3908 55° Northeast 148 170 5,200  Level Boston Center
Fri 10:53:00 AM 42.0147 -75.3468 55° Northeast  Level FlightAware Approximate
Fri 10:53:40 AM 42.0275 -75.3497 60° Northeast 155 178 5,900  Level Boston Center
Fri 10:54:00 AM 42.0393 -75.2995 55° Northeast  Level FlightAware Approximate
Fri 10:54:40 AM 42.0492 -75.3117 53° Northeast 132 152 6,100  Level Boston Center
Fri 10:55:00 AM 42.0638 -75.2522 55° Northeast  Level FlightAware Approximate
Fri 10:55:40 AM 42.0714 -75.2650 57° Northeast 132 152 6,100  Level Boston Center
Fri 10:56:00 AM 42.0883 -75.2048 55° Northeast  Level FlightAware Approximate
Fri 10:56:40 AM 42.0889 -75.2294 56° Northeast 144 166 6,100  Level Boston Center
Fri 10:57:00 AM 42.1128 -75.1574 55° Northeast  Level FlightAware Approximate
Fri 10:57:40 AM 42.1131 -75.1800 57° Northeast 151 174 6,100  Level Boston Center
Fri 10:58:40 AM 42.1389 -75.1392 50° Northeast 151 174 6,100  Level Boston Center
Fri 10:59:40 AM 42.1656 -75.0789 59° Northeast 152 175 6,100  Level Boston Center
Fri 11:00:40 AM 42.1894 -75.0350 54° Northeast 147 169 6,100  Level Boston Center
Fri 11:01:40 AM 42.2136 -74.9825 58° Northeast 147 169 6,100  Level Boston Center
Fri 11:02:40 AM 42.2375 -74.9331 57° Northeast 153 176 6,100  Level Boston Center
Fri 11:03:40 AM 42.2614 -74.8864 55° Northeast 153 176 6,100  Level Boston Center
Fri 11:04:40 AM 42.2833 -74.8453 54° Northeast 148 170 6,100  Level Boston Center
Fri 11:05:40 AM 42.3094 -74.7900 57° Northeast 153 176 6,100  Level Boston Center
Fri 11:06:40 AM 42.3333 -74.7347 60° Northeast 153 176 6,100  Level Boston Center
Fri 11:07:35 AM 42.3550 -74.6961 53° Northeast 158 182 6,100  Level Boston Center
Fri 11:08:40 AM 42.3792 -74.6381 61° Northeast 165 190 6,100  Level Boston Center
Fri 11:09:30 AM 42.4008 -74.5994 53° Northeast 156 180 6,100  Level Boston Center
Fri 11:10:40 AM 42.4289 -74.5386 58° Northeast 165 190 6,100  Level Boston Center
Fri 11:11:40 AM 42.4486 -74.4942 59° Northeast 159 183 6,100  Level Boston Center
Fri 11:12:32 AM 42.4722 -74.4500 54° Northeast 157 181 6,100  Level Boston Center
Fri 11:13:33 AM 42.4961 -74.3972 58° Northeast 156 180 6,100  Level Boston Center
Fri 11:14:39 AM 42.5242 -74.3472 53° Northeast 159 183 6,100  Level Boston Center
Fri 11:15:28 AM 42.5456 -74.3028 57° Northeast 161 185 6,100  Level Boston Center
Fri 11:16:29 AM 42.5672 -74.2528 60° Northeast 161 185 6,100  Level Boston Center
Fri 11:17:23 AM 42.5908 -74.2083 54° Northeast 159 183 6,100  Level Boston Center
Fri 11:17:40 AM 42.5953 -74.1944 67° East 165 190 6,100  Level Boston Center
Fri 11:18:24 AM 42.6147 -74.1556 56° Northeast 160 184 6,100  Level Boston Center
Fri 11:18:40 AM 42.6211 -74.1414 58° Northeast 165 190 6,100  Level Boston Center
Fri 11:19:24 AM 42.6383 -74.1025 59° Northeast 159 183 6,100  Level Boston Center
Fri 11:19:40 AM 42.6425 -74.0942 56° Northeast 165 190 6,100  Level Boston Center
Fri 11:20:31 AM 42.6661 -74.0525 52° Northeast 158 182 6,100  Level Boston Center
Fri 11:21:40 AM 42.6942 -73.9908 58° Northeast 160 184 6,100  Level Boston Center
Fri 11:22:32 AM 42.7133 -73.9492 58° Northeast 159 183 6,100  Level Boston Center
Fri 11:23:33 AM 42.7369 -73.8986 58° Northeast 157 181 6,100  Level Boston Center
Fri 11:24:34 AM 42.7647 -73.8456 54° Northeast 159 183 6,100 149 Level Boston Center
Fri 11:25:34 AM 42.7842 -73.7953 62° Northeast 155 178 6,400 425 Climbing Boston Center
Fri 11:26:41 AM 42.8097 -73.7506 52° Northeast 138 159 7,000 375 Climbing Boston Center
Fri 11:27:42 AM 42.8311 -73.7028 59° Northeast 150 173 7,200 50 Climbing Boston Center
Fri 11:28:42 AM 42.8544 -73.6494 59° Northeast 170 196 7,100 -50 Descending Boston Center
Fri 11:29:43 AM 42.8822 -73.5906 57° Northeast 173 199 7,100  Level Boston Center
Fri 11:30:44 AM 42.9078 -73.5372 57° Northeast 166 191 7,100  Level Boston Center
Fri 11:31:38 AM 42.9292 -73.4919 57° Northeast 164 189 7,100  Level Boston Center
Fri 11:32:39 AM 42.9567 -73.4331 57° Northeast 167 192 7,100  Level Boston Center
Fri 11:33:40 AM 42.9822 -73.3822 55° Northeast 167 192 7,100  Level Boston Center
Fri 11:34:28 AM 43.0053 -73.3458 49° Northeast 191 220 7,100  Level Boston Center
Fri 11:35:28 AM 43.0469 -73.3464 359° North 177 204 7,100  Level Boston Center
Fri 11:36:28 AM 43.0886 -73.3442 North 170 196 7,100  Level Boston Center
Fri 11:37:28 AM 43.1389 -73.3419 North 165 190 7,100  Level Boston Center
Fri 11:38:28 AM 43.1806 -73.3428 359° North 160 184 7,100  Level Boston Center
Fri 11:39:28 AM 43.2306 -73.3406 North 160 184 7,100  Level Boston Center
Fri 11:40:28 AM 43.2825 -73.3356 North 160 184 7,100  Level Boston Center
Fri 11:41:28 AM 43.3222 -73.3333 North 160 184 7,100  Level Boston Center
Fri 11:42:28 AM 43.3722 -73.3311 North 155 178 7,100  Level Boston Center
Fri 11:43:28 AM 43.4161 -73.3319 359° North 167 192 7,100  Level Boston Center
Fri 11:44:28 AM 43.4639 -73.3269 North 167 192 7,100  Level Boston Center
Fri 11:45:28 AM 43.5097 -73.3275 359° North 167 192 7,100  Level Boston Center
Fri 11:46:28 AM 43.5536 -73.3225 North 167 192 7,100  Level Boston Center
Fri 11:47:28 AM 43.5994 -73.3231 359° North 162 186 7,100  Level Boston Center
Fri 11:48:28 AM 43.6453 -73.3181 North 162 186 7,100  Level Boston Center
Fri 11:49:28 AM 43.6892 -73.3186 359° North 162 186 7,100  Level Boston Center
Fri 11:50:28 AM 43.7350 -73.3078 10° North 157 181 7,100  Level Boston Center
Fri 11:51:28 AM 43.7850 -73.3000 North 164 189 7,100  Level Boston Center
Fri 11:52:28 AM 43.8289 -73.2919 North 157 181 7,100  Level Boston Center
Fri 11:53:28 AM 43.8747 -73.2839 North 157 181 7,100  Level Boston Center
Fri 11:54:28 AM 43.9208 -73.2758 North 157 181 7,100  Level Boston Center
Fri 11:55:28 AM 43.9667 -73.2681 North 157 181 7,100 -300 Level Boston Center
Fri 11:56:28 AM 44.0167 -73.2542 11° North 167 192 6,500 -700 Descending Boston Center
Fri 11:57:28 AM 44.0711 -73.2461 North 179 206 5,700 -800 Descending Boston Center
Fri 11:58:28 AM 44.1272 -73.2383 North 196 226 4,900 -750 Descending Boston Center
Fri 11:59:28 AM 44.1769 -73.2708 335° Northwest 191 220 4,200 -364 Descending Boston Center
Fri 12:00:40 PM 44.2208 -73.2744 357° North 177 204 4,100 -45 Descending Boston Center
Fri 12:01:40 PM 44.2628 -73.2344 34° Northeast 147 169 4,100  Level Boston Center
Fri 12:02:40 PM 44.2942 -73.2028 36° Northeast 152 175 4,100  Level Boston Center
Fri 12:03:40 PM 44.3278 -73.1714 34° Northeast 146 168 4,100 -300 Level Boston Center
Fri 12:04:40 PM 44.3531 -73.1339 47° Northeast 135 155 3,500 -600 Descending Boston Center
Fri 12:06:00 PM 44.4058 -73.1610 340° North  Level FlightAware Approximate
Fri 12:13:00 PM 44.4667 -73.1500 13° North  Level FlightAware Approximate
Fri 12:14:00 PM 44.4719 -73.1533 13° North  Level Estimated
Fri 12:15:00 PM 44.4667 -73.1500 13° North  Level FlightAware Approximate
Fri 12:16:00 PM 44.4719 -73.1533 13° North  Level Estimated

Login

Don't have an account? Register now (free) for customized features, flight alerts, and more!